Time;durP1;ratioP1;P1;durP2;ratioP2;P2;SDS_P1;SDS_P2;PMS_P1;PMS_P2;Temp;Humidity;BMP_temperature;BMP_pressure;BME280_temperature;BME280_humidity;BME280_pressure;Samples;Min_cycle;Max_cycle;Signal;HPM_P1;HPM_P2
2023/05/09 00:00:12;;;;;;;;;;;16.40;63.60;;;;;;5033693;28;87436;-41
2023/05/09 00:02:38;;;;;;;;;;;16.40;63.70;;;;;;5032800;28;88756;-41
2023/05/09 00:05:04;;;;;;;;;;;16.30;63.70;;;;;;5034236;28;87122;-41
2023/05/09 00:07:30;;;;;;;;;;;16.40;63.60;;;;;;5032517;28;87164;-41
2023/05/09 00:09:56;;;;;;;;;;;16.40;63.70;;;;;;5032249;28;88392;-41
2023/05/09 00:12:22;;;;;;;;;;;16.40;63.70;;;;;;5030862;28;88367;-41
2023/05/09 00:14:50;;;;;;;;;;;16.40;63.60;;;;;;5031849;28;89352;-42
2023/05/09 00:17:21;;;;;;;;;;;16.30;63.70;;;;;;5033519;28;87408;-41
2023/05/09 00:19:47;;;;;;;;;;;16.30;63.70;;;;;;5033011;28;87449;-41
2023/05/09 00:22:13;;;;;;;;;;;16.30;63.80;;;;;;5030874;28;87152;-41
2023/05/09 00:24:38;;;;;;;;;;;16.30;63.70;;;;;;5035989;28;87131;-41
2023/05/09 00:27:04;;;;;;;;;;;16.30;63.80;;;;;;5033715;28;87401;-41
2023/05/09 00:29:29;;;;;;;;;;;16.30;63.80;;;;;;5027780;28;87088;-41
2023/05/09 00:31:55;;;;;;;;;;;16.30;63.80;;;;;;5032556;28;87083;-41
2023/05/09 00:34:20;;;;;;;;;;;16.30;63.70;;;;;;5032039;28;88572;-41
2023/05/09 00:36:46;;;;;;;;;;;16.30;63.60;;;;;;5031590;28;87357;-42
2023/05/09 00:39:12;;;;;;;;;;;16.20;63.60;;;;;;5030984;28;87507;-41
2023/05/09 00:41:37;;;;;;;;;;;16.20;63.50;;;;;;5032625;28;89875;-41
2023/05/09 00:44:03;;;;;;;;;;;16.20;63.60;;;;;;5031865;28;87075;-41
2023/05/09 00:46:29;;;;;;;;;;;16.20;63.60;;;;;;5033501;27;87040;-41
2023/05/09 00:48:55;;;;;;;;;;;16.20;63.50;;;;;;5032564;28;87215;-41
2023/05/09 00:51:21;;;;;;;;;;;16.20;63.60;;;;;;5033147;28;88844;-41
2023/05/09 00:53:47;;;;;;;;;;;16.20;63.60;;;;;;5030245;28;88057;-40
2023/05/09 00:56:13;;;;;;;;;;;16.20;63.70;;;;;;5031268;28;87124;-41
2023/05/09 00:58:38;;;;;;;;;;;16.20;63.60;;;;;;5032438;28;88292;-41
2023/05/09 01:01:04;;;;;;;;;;;16.20;63.50;;;;;;5029790;27;87931;-41
2023/05/09 01:03:30;;;;;;;;;;;16.20;63.60;;;;;;5030546;28;87057;-41
2023/05/09 01:06:14;;;;;;;;;;;16.10;63.60;;;;;;5032445;28;87440;-41
2023/05/09 01:08:49;;;;;;;;;;;16.10;63.60;;;;;;5029383;28;88033;-41
2023/05/09 01:11:15;;;;;;;;;;;16.10;63.70;;;;;;5029878;27;87418;-41
2023/05/09 01:13:45;;;;;;;;;;;16.10;63.60;;;;;;5032173;28;88069;-41
2023/05/09 01:16:30;;;;;;;;;;;16.10;63.70;;;;;;5033308;28;86326;-40
2023/05/09 01:19:24;;;;;;;;;;;16.00;63.60;;;;;;5032954;28;87038;-40
2023/05/09 01:21:51;;;;;;;;;;;16.00;63.60;;;;;;5025091;28;88198;-41
2023/05/09 01:24:35;;;;;;;;;;;16.00;63.60;;;;;;5029457;28;88113;-41
2023/05/09 01:27:01;;;;;;;;;;;16.00;63.70;;;;;;5030639;27;88248;-41
2023/05/09 01:29:30;;;;;;;;;;;16.00;63.70;;;;;;5031750;28;88205;-41
2023/05/09 01:31:56;;;;;;;;;;;16.00;63.70;;;;;;5035344;28;87170;-41
2023/05/09 01:34:25;;;;;;;;;;;16.00;63.60;;;;;;5030146;28;89611;-40
2023/05/09 01:36:50;;;;;;;;;;;16.00;63.60;;;;;;5030280;28;87367;-41
2023/05/09 01:39:16;;;;;;;;;;;16.00;63.60;;;;;;5032660;28;87241;-42
2023/05/09 01:41:42;;;;;;;;;;;15.90;63.50;;;;;;5032263;28;87497;-41
2023/05/09 01:44:09;;;;;;;;;;;15.90;63.60;;;;;;5028207;28;87266;-41
2023/05/09 01:46:36;;;;;;;;;;;15.90;63.60;;;;;;5031231;28;87390;-41
2023/05/09 01:49:02;;;;;;;;;;;15.90;63.60;;;;;;5031092;28;89035;-41
2023/05/09 01:51:30;;;;;;;;;;;15.90;63.70;;;;;;5030490;28;87656;-40
2023/05/09 01:53:55;;;;;;;;;;;15.90;63.70;;;;;;5031586;28;91163;-41
2023/05/09 01:56:21;;;;;;;;;;;15.90;63.70;;;;;;5033904;28;87185;-40
2023/05/09 01:58:48;;;;;;;;;;;15.90;63.70;;;;;;5030748;27;87478;-41
2023/05/09 02:01:14;;;;;;;;;;;15.80;63.50;;;;;;5031909;28;88796;-41
2023/05/09 02:03:41;;;;;;;;;;;15.90;63.50;;;;;;5030288;28;87118;-41
2023/05/09 02:06:06;;;;;;;;;;;15.80;63.70;;;;;;5030781;27;87452;-41
2023/05/09 02:08:32;;;;;;;;;;;15.80;63.70;;;;;;5031699;28;88171;-42
2023/05/09 02:10:57;;;;;;;;;;;15.80;63.60;;;;;;5030887;28;87099;-41
2023/05/09 02:13:23;;;;;;;;;;;15.80;63.70;;;;;;5031993;28;88009;-41
2023/05/09 02:15:48;;;;;;;;;;;15.80;63.60;;;;;;5037481;28;88011;-41
2023/05/09 02:18:15;;;;;;;;;;;15.80;63.60;;;;;;5035477;28;87466;-41
2023/05/09 02:20:41;;;;;;;;;;;15.70;63.50;;;;;;5029549;28;89310;-41
2023/05/09 02:23:06;;;;;;;;;;;15.70;63.50;;;;;;5034059;28;87200;-41
2023/05/09 02:25:33;;;;;;;;;;;15.80;63.50;;;;;;5035309;28;87308;-41
2023/05/09 02:27:58;;;;;;;;;;;15.70;63.50;;;;;;5033365;28;87912;-42
2023/05/09 02:30:25;;;;;;;;;;;15.70;63.50;;;;;;5033328;28;86972;-41
2023/05/09 02:32:55;;;;;;;;;;;15.70;63.50;;;;;;5034041;28;87069;-40
2023/05/09 02:35:21;;;;;;;;;;;15.70;63.50;;;;;;5037352;28;89469;-40
2023/05/09 02:37:47;;;;;;;;;;;15.70;63.50;;;;;;5030520;28;88516;-41
2023/05/09 02:40:13;;;;;;;;;;;15.60;63.60;;;;;;5033851;28;87210;-41
2023/05/09 02:42:38;;;;;;;;;;;15.70;63.60;;;;;;5032365;28;87218;-41
2023/05/09 02:45:04;;;;;;;;;;;15.60;63.60;;;;;;5034047;27;87539;-42
2023/05/09 02:47:30;;;;;;;;;;;15.60;63.60;;;;;;5034547;28;88056;-41
2023/05/09 02:49:56;;;;;;;;;;;15.60;63.60;;;;;;5028410;28;87171;-41
2023/05/09 02:52:21;;;;;;;;;;;15.60;63.70;;;;;;5033441;28;87339;-41
2023/05/09 02:54:47;;;;;;;;;;;15.60;63.60;;;;;;5034738;28;87671;-41
2023/05/09 02:57:12;;;;;;;;;;;15.50;63.60;;;;;;5036084;28;87221;-41
2023/05/09 02:59:38;;;;;;;;;;;15.60;63.70;;;;;;5032161;28;88046;-41
2023/05/09 03:02:04;;;;;;;;;;;15.50;63.70;;;;;;5034429;28;89058;-41
2023/05/09 03:04:29;;;;;;;;;;;15.50;63.60;;;;;;5032928;28;89943;-42
2023/05/09 03:06:55;;;;;;;;;;;15.50;63.60;;;;;;5032311;28;87995;-41
2023/05/09 03:09:20;;;;;;;;;;;15.60;63.70;;;;;;5034170;28;87184;-41
2023/05/09 03:11:46;;;;;;;;;;;15.50;63.60;;;;;;5034499;28;87374;-41
2023/05/09 03:14:13;;;;;;;;;;;15.50;63.70;;;;;;5031809;28;88180;-41
2023/05/09 03:16:39;;;;;;;;;;;15.50;63.60;;;;;;5033061;28;87089;-41
2023/05/09 03:19:04;;;;;;;;;;;15.50;63.60;;;;;;5038302;28;88830;-41
2023/05/09 03:21:30;;;;;;;;;;;15.50;63.70;;;;;;5034185;28;87189;-41
2023/05/09 03:23:56;;;;;;;;;;;15.40;63.70;;;;;;5033454;28;89019;-41
2023/05/09 03:26:21;;;;;;;;;;;15.40;63.70;;;;;;5031406;28;88950;-41
2023/05/09 03:28:47;;;;;;;;;;;15.50;63.80;;;;;;5032875;28;87477;-41
2023/05/09 03:31:13;;;;;;;;;;;15.40;63.70;;;;;;5034529;28;87365;-41
2023/05/09 03:33:39;;;;;;;;;;;15.40;63.70;;;;;;5032624;28;87933;-41
2023/05/09 03:36:05;;;;;;;;;;;15.40;63.80;;;;;;5032258;28;87045;-41
2023/05/09 03:38:30;;;;;;;;;;;15.40;63.70;;;;;;5034721;28;87479;-41
2023/05/09 03:40:56;;;;;;;;;;;15.40;63.80;;;;;;5036396;28;88075;-41
2023/05/09 03:43:21;;;;;;;;;;;15.40;63.80;;;;;;5032238;28;87668;-42
2023/05/09 03:45:47;;;;;;;;;;;15.40;63.80;;;;;;5034346;28;88018;-41
2023/05/09 03:48:12;;;;;;;;;;;15.40;63.90;;;;;;5034546;28;87126;-41
2023/05/09 03:50:37;;;;;;;;;;;15.40;64.00;;;;;;5032119;28;88835;-41
2023/05/09 03:53:03;;;;;;;;;;;15.40;64.00;;;;;;5033528;28;88335;-41
2023/05/09 03:55:29;;;;;;;;;;;15.30;64.50;;;;;;5034483;28;87207;-41
2023/05/09 03:57:54;;;;;;;;;;;15.40;64.00;;;;;;5032788;28;87499;-41
2023/05/09 04:00:20;;;;;;;;;;;15.30;63.90;;;;;;5032379;28;88079;-41
2023/05/09 04:02:46;;;;;;;;;;;15.30;63.90;;;;;;5037613;28;87181;-41
2023/05/09 04:05:12;;;;;;;;;;;15.30;63.90;;;;;;5032805;28;88163;-42
2023/05/09 04:07:38;;;;;;;;;;;15.30;64.00;;;;;;5032679;28;86749;-41
2023/05/09 04:10:03;;;;;;;;;;;15.30;64.00;;;;;;5034365;28;87081;-41
2023/05/09 04:12:29;;;;;;;;;;;15.30;64.00;;;;;;5033593;28;88040;-41
2023/05/09 04:14:54;;;;;;;;;;;15.30;64.10;;;;;;5031094;28;88198;-41
2023/05/09 04:17:20;;;;;;;;;;;15.30;64.00;;;;;;5033084;28;88351;-41
2023/05/09 04:19:46;;;;;;;;;;;15.30;64.00;;;;;;5033293;28;87779;-41
2023/05/09 04:22:11;;;;;;;;;;;15.30;64.00;;;;;;5028099;28;87128;-41
2023/05/09 04:24:37;;;;;;;;;;;15.30;64.00;;;;;;5035101;28;87621;-41
2023/05/09 04:27:02;;;;;;;;;;;15.30;64.00;;;;;;5033521;28;87145;-40
2023/05/09 04:29:28;;;;;;;;;;;15.30;64.00;;;;;;5031756;28;87300;-41
2023/05/09 04:31:53;;;;;;;;;;;15.30;64.00;;;;;;5031058;28;87810;-41
2023/05/09 04:34:19;;;;;;;;;;;15.20;64.00;;;;;;5033194;27;87176;-41
2023/05/09 04:36:45;;;;;;;;;;;15.20;64.10;;;;;;5032649;28;87882;-41
2023/05/09 04:39:11;;;;;;;;;;;15.30;64.10;;;;;;5030052;28;89115;-41
2023/05/09 04:41:37;;;;;;;;;;;15.30;64.20;;;;;;5032678;28;87713;-41
2023/05/09 04:44:02;;;;;;;;;;;15.20;64.10;;;;;;5034864;28;88787;-41
2023/05/09 04:46:28;;;;;;;;;;;15.20;64.10;;;;;;5031092;28;87613;-41
2023/05/09 04:48:53;;;;;;;;;;;15.20;64.20;;;;;;5032153;28;87790;-41
2023/05/09 04:51:19;;;;;;;;;;;15.20;64.20;;;;;;5032595;28;89643;-40
2023/05/09 04:53:44;;;;;;;;;;;15.20;64.10;;;;;;5031320;28;87087;-41
2023/05/09 04:56:10;;;;;;;;;;;15.20;64.20;;;;;;5032170;28;87395;-41
2023/05/09 04:58:39;;;;;;;;;;;15.20;64.20;;;;;;5032669;28;88060;-41
2023/05/09 05:01:04;;;;;;;;;;;15.20;64.20;;;;;;5031857;28;87139;-41
2023/05/09 05:03:30;;;;;;;;;;;15.20;64.20;;;;;;5029842;27;88016;-41
2023/05/09 05:05:56;;;;;;;;;;;15.10;64.20;;;;;;5034343;28;88036;-41
2023/05/09 05:08:21;;;;;;;;;;;15.20;64.20;;;;;;5033039;28;87264;-41
2023/05/09 05:10:48;;;;;;;;;;;15.20;64.20;;;;;;5030709;28;88083;-41
2023/05/09 05:13:14;;;;;;;;;;;15.20;64.20;;;;;;5031398;28;87199;-41
2023/05/09 05:15:39;;;;;;;;;;;15.20;64.20;;;;;;5033559;28;87067;-41
2023/05/09 05:18:05;;;;;;;;;;;15.20;64.20;;;;;;5030915;28;87440;-40
2023/05/09 05:20:30;;;;;;;;;;;15.20;64.20;;;;;;5030558;28;86537;-41
2023/05/09 05:22:57;;;;;;;;;;;15.20;64.20;;;;;;5032852;28;88074;-41
2023/05/09 05:25:23;;;;;;;;;;;15.20;64.20;;;;;;5031358;28;88258;-41
2023/05/09 05:27:48;;;;;;;;;;;15.20;64.20;;;;;;5032704;28;89611;-42
2023/05/09 05:30:16;;;;;;;;;;;15.20;64.20;;;;;;5030496;28;87573;-41
2023/05/09 05:32:42;;;;;;;;;;;15.20;64.10;;;;;;5032034;28;87142;-41
2023/05/09 05:35:10;;;;;;;;;;;15.20;64.20;;;;;;5029467;28;88725;-41
2023/05/09 05:37:36;;;;;;;;;;;15.20;64.80;;;;;;5028917;28;89737;-41
2023/05/09 05:40:02;;;;;;;;;;;15.20;64.20;;;;;;5032104;28;87304;-41
2023/05/09 05:42:27;;;;;;;;;;;15.20;64.30;;;;;;5030338;28;88857;-41
2023/05/09 05:44:53;;;;;;;;;;;15.20;64.40;;;;;;5028808;28;87314;-41
2023/05/09 05:47:18;;;;;;;;;;;15.20;64.40;;;;;;5031934;28;87645;-41
2023/05/09 05:49:44;;;;;;;;;;;15.20;64.40;;;;;;5037656;28;87474;-41
2023/05/09 05:52:09;;;;;;;;;;;15.20;64.40;;;;;;5032434;28;88724;-41
2023/05/09 05:54:35;;;;;;;;;;;15.20;64.40;;;;;;5034136;28;88404;-41
2023/05/09 05:57:01;;;;;;;;;;;15.20;64.40;;;;;;5034260;28;88011;-41
2023/05/09 05:59:26;;;;;;;;;;;15.20;64.50;;;;;;5032265;28;87196;-41
2023/05/09 06:01:52;;;;;;;;;;;15.20;64.60;;;;;;5032840;28;87414;-41
2023/05/09 06:04:17;;;;;;;;;;;15.20;64.60;;;;;;5034564;28;87998;-41
2023/05/09 06:06:43;;;;;;;;;;;15.20;64.60;;;;;;5033043;28;87085;-41
2023/05/09 06:09:08;;;;;;;;;;;15.20;64.60;;;;;;5032662;27;87626;-41
2023/05/09 06:11:34;;;;;;;;;;;15.20;64.60;;;;;;5030764;28;88616;-41
2023/05/09 06:13:59;;;;;;;;;;;15.20;64.70;;;;;;5032752;28;87482;-41
2023/05/09 06:16:25;;;;;;;;;;;15.20;64.80;;;;;;5033246;28;89290;-41
2023/05/09 06:18:50;;;;;;;;;;;15.20;64.70;;;;;;5032584;28;87234;-41
2023/05/09 06:21:16;;;;;;;;;;;15.20;64.70;;;;;;5032715;28;87291;-41
2023/05/09 06:23:41;;;;;;;;;;;15.20;64.70;;;;;;5034319;28;88383;-40
2023/05/09 06:26:07;;;;;;;;;;;15.20;64.70;;;;;;5033317;28;87094;-40
2023/05/09 06:28:32;;;;;;;;;;;15.20;64.60;;;;;;5032234;28;88150;-41
2023/05/09 06:30:58;;;;;;;;;;;15.20;64.70;;;;;;5034118;28;88307;-41
2023/05/09 06:33:23;;;;;;;;;;;15.20;64.70;;;;;;5036402;28;86291;-41
2023/05/09 06:35:49;;;;;;;;;;;15.20;64.80;;;;;;5031263;28;87855;-41
2023/05/09 06:38:14;;;;;;;;;;;15.20;64.70;;;;;;5033107;28;87173;-41
2023/05/09 06:40:40;;;;;;;;;;;15.20;64.60;;;;;;5033591;28;88207;-41
2023/05/09 06:43:06;;;;;;;;;;;15.20;64.70;;;;;;5031421;28;88400;-41
2023/05/09 06:45:32;;;;;;;;;;;15.20;65.30;;;;;;5031857;28;87050;-40
2023/05/09 06:47:57;;;;;;;;;;;15.20;64.70;;;;;;5033586;28;88876;-41
2023/05/09 06:50:23;;;;;;;;;;;15.20;64.60;;;;;;5031564;28;88171;-41
2023/05/09 06:52:48;;;;;;;;;;;15.20;64.60;;;;;;5034844;28;87062;-41
2023/05/09 06:55:14;;;;;;;;;;;15.20;64.70;;;;;;5033726;28;88163;-41
2023/05/09 06:57:39;;;;;;;;;;;15.20;64.70;;;;;;5033378;28;87244;-41
2023/05/09 07:00:05;;;;;;;;;;;15.20;64.70;;;;;;5030841;27;87998;-41
2023/05/09 07:02:31;;;;;;;;;;;15.20;64.70;;;;;;5032650;28;87931;-41
2023/05/09 07:04:56;;;;;;;;;;;15.20;64.70;;;;;;5032269;28;88623;-41
2023/05/09 07:07:22;;;;;;;;;;;15.20;64.70;;;;;;5030982;28;88386;-41
2023/05/09 07:09:47;;;;;;;;;;;15.20;64.70;;;;;;5032467;28;87865;-41
2023/05/09 07:12:13;;;;;;;;;;;15.20;64.60;;;;;;5033556;28;87194;-41
2023/05/09 07:14:40;;;;;;;;;;;15.20;64.70;;;;;;5033867;28;88080;-41
2023/05/09 07:17:07;;;;;;;;;;;15.20;64.70;;;;;;5031201;28;87072;-40
2023/05/09 07:19:33;;;;;;;;;;;15.20;64.70;;;;;;5027938;28;87672;-41
2023/05/09 07:21:58;;;;;;;;;;;15.20;64.60;;;;;;5032206;28;87259;-41
2023/05/09 07:24:24;;;;;;;;;;;15.20;64.60;;;;;;5033440;28;87472;-41
2023/05/09 07:26:49;;;;;;;;;;;15.20;64.60;;;;;;5032123;28;87131;-41
2023/05/09 07:29:16;;;;;;;;;;;15.20;65.30;;;;;;5029813;28;88099;-41
2023/05/09 07:31:41;;;;;;;;;;;15.20;64.70;;;;;;5026848;28;87835;-40
2023/05/09 07:34:07;;;;;;;;;;;15.20;64.70;;;;;;5031209;28;87574;-41
2023/05/09 07:36:33;;;;;;;;;;;15.20;64.70;;;;;;5035325;28;87326;-40
2023/05/09 07:38:59;;;;;;;;;;;15.20;64.70;;;;;;5031363;28;89113;-41
2023/05/09 07:41:25;;;;;;;;;;;15.20;64.50;;;;;;5030457;28;88014;-41
2023/05/09 07:43:51;;;;;;;;;;;15.20;64.60;;;;;;5026729;28;87257;-41
2023/05/09 07:46:16;;;;;;;;;;;15.20;64.60;;;;;;5031491;28;87568;-41
2023/05/09 07:48:42;;;;;;;;;;;15.20;64.60;;;;;;5032670;28;88512;-41
2023/05/09 07:51:07;;;;;;;;;;;15.20;64.40;;;;;;5032168;28;87127;-40
2023/05/09 07:53:33;;;;;;;;;;;15.30;64.40;;;;;;5031005;28;87998;-41
2023/05/09 07:55:59;;;;;;;;;;;15.30;64.40;;;;;;5033879;28;87589;-40
2023/05/09 07:58:25;;;;;;;;;;;15.30;64.50;;;;;;5034475;28;87032;-41
2023/05/09 08:00:50;;;;;;;;;;;15.30;64.50;;;;;;5030148;28;88077;-41
2023/05/09 08:03:16;;;;;;;;;;;15.30;64.40;;;;;;5031978;28;87434;-41
2023/05/09 08:05:41;;;;;;;;;;;15.30;64.40;;;;;;5032619;28;87212;-41
2023/05/09 08:08:07;;;;;;;;;;;15.40;64.40;;;;;;5030673;28;87906;-40
2023/05/09 08:10:32;;;;;;;;;;;15.40;64.40;;;;;;5031543;27;86627;-41
2023/05/09 08:12:58;;;;;;;;;;;15.40;64.30;;;;;;5032220;28;88264;-41
2023/05/09 08:15:24;;;;;;;;;;;15.40;64.40;;;;;;5030009;28;87872;-41
2023/05/09 08:17:49;;;;;;;;;;;15.40;64.40;;;;;;5030427;28;87948;-41
2023/05/09 08:20:15;;;;;;;;;;;15.40;64.40;;;;;;5034945;28;88212;-41
2023/05/09 08:22:40;;;;;;;;;;;15.40;64.40;;;;;;5030863;28;87649;-41
2023/05/09 08:25:07;;;;;;;;;;;15.40;64.40;;;;;;5029993;28;87235;-41
2023/05/09 08:27:32;;;;;;;;;;;15.30;64.40;;;;;;5031784;28;88720;-40
2023/05/09 08:29:58;;;;;;;;;;;15.30;64.30;;;;;;5031870;28;87159;-41
2023/05/09 08:32:23;;;;;;;;;;;15.40;64.20;;;;;;5029743;28;87526;-40
2023/05/09 08:34:49;;;;;;;;;;;15.40;64.10;;;;;;5030865;28;87645;-41
2023/05/09 08:37:14;;;;;;;;;;;15.40;64.10;;;;;;5031752;28;86987;-41
2023/05/09 08:39:40;;;;;;;;;;;15.40;64.10;;;;;;5032149;28;88874;-41
2023/05/09 08:42:07;;;;;;;;;;;15.40;64.10;;;;;;5029283;28;87990;-41
2023/05/09 08:44:32;;;;;;;;;;;15.40;64.00;;;;;;5031906;28;88359;-41
2023/05/09 08:46:59;;;;;;;;;;;15.40;64.10;;;;;;5030258;28;88606;-41
2023/05/09 08:49:24;;;;;;;;;;;15.40;64.00;;;;;;5029457;28;87681;-41
2023/05/09 08:51:50;;;;;;;;;;;15.40;64.00;;;;;;5031150;28;87412;-41
2023/05/09 08:54:16;;;;;;;;;;;15.40;64.00;;;;;;5031125;28;89525;-41
2023/05/09 08:56:42;;;;;;;;;;;15.40;63.90;;;;;;5029790;28;87263;-41
2023/05/09 08:59:08;;;;;;;;;;;15.40;63.90;;;;;;5031416;28;87418;-40
2023/05/09 09:01:36;;;;;;;;;;;15.40;63.90;;;;;;5034548;28;88283;-41
2023/05/09 09:04:07;;;;;;;;;;;15.50;63.90;;;;;;5027312;28;87518;-41
2023/05/09 09:06:33;;;;;;;;;;;15.50;63.90;;;;;;5030405;28;90459;-41
2023/05/09 09:08:59;;;;;;;;;;;15.50;64.00;;;;;;5030157;28;87071;-41
2023/05/09 09:11:25;;;;;;;;;;;15.50;64.00;;;;;;5029354;27;87063;-40
2023/05/09 09:13:51;;;;;;;;;;;15.50;63.90;;;;;;5030462;28;88267;-40
2023/05/09 09:16:19;;;;;;;;;;;15.50;63.80;;;;;;5030387;28;87315;-41
2023/05/09 09:18:45;;;;;;;;;;;15.50;63.80;;;;;;5028966;28;89435;-41
2023/05/09 09:21:11;;;;;;;;;;;15.50;63.70;;;;;;5029671;28;87674;-40
2023/05/09 09:23:39;;;;;;;;;;;15.50;63.80;;;;;;5035029;28;86757;-41
2023/05/09 09:26:04;;;;;;;;;;;15.50;63.80;;;;;;5029221;28;89355;-41
2023/05/09 09:28:30;;;;;;;;;;;15.50;63.80;;;;;;5029454;28;87192;-41
2023/05/09 09:30:55;;;;;;;;;;;15.50;63.70;;;;;;5030471;28;88138;-41
2023/05/09 09:33:21;;;;;;;;;;;15.50;63.70;;;;;;5030255;28;87986;-40
2023/05/09 09:35:51;;;;;;;;;;;15.50;63.60;;;;;;5028565;28;87097;-41
2023/05/09 09:38:17;;;;;;;;;;;15.50;63.50;;;;;;5029718;28;88638;-40
2023/05/09 09:40:56;;;;;;;;;;;15.50;63.60;;;;;;5030741;28;88075;-41
2023/05/09 09:43:28;;;;;;;;;;;15.50;64.20;;;;;;5030302;28;87049;-41
2023/05/09 09:45:54;;;;;;;;;;;15.50;63.70;;;;;;5028641;28;88003;-41
2023/05/09 09:48:26;;;;;;;;;;;15.60;63.70;;;;;;5029053;28;86943;-41
2023/05/09 09:50:55;;;;;;;;;;;15.50;63.70;;;;;;5026686;28;87613;-41
2023/05/09 09:53:22;;;;;;;;;;;15.60;63.70;;;;;;5027974;28;87962;-41
2023/05/09 09:55:52;;;;;;;;;;;15.60;63.80;;;;;;5029751;28;88333;-40
2023/05/09 09:58:20;;;;;;;;;;;15.60;63.80;;;;;;5030782;28;89717;-40
2023/05/09 10:00:46;;;;;;;;;;;15.60;63.80;;;;;;5029133;28;87530;-41
2023/05/09 10:03:15;;;;;;;;;;;15.60;63.80;;;;;;5028628;28;87233;-41
2023/05/09 10:05:41;;;;;;;;;;;15.60;63.80;;;;;;5024917;28;87859;-41
2023/05/09 10:08:07;;;;;;;;;;;15.60;63.70;;;;;;5031349;28;88450;-41
2023/05/09 10:10:33;;;;;;;;;;;15.60;63.70;;;;;;5030581;28;88302;-41
2023/05/09 10:13:00;;;;;;;;;;;15.60;63.70;;;;;;5030352;28;87261;-41
2023/05/09 10:15:27;;;;;;;;;;;15.60;63.70;;;;;;5027941;28;87248;-41
2023/05/09 10:17:54;;;;;;;;;;;15.60;63.60;;;;;;5029067;28;88912;-41
2023/05/09 10:20:20;;;;;;;;;;;15.60;63.60;;;;;;5029551;28;88429;-41
2023/05/09 10:22:46;;;;;;;;;;;15.70;63.60;;;;;;5028860;28;87570;-41
2023/05/09 10:25:21;;;;;;;;;;;15.70;63.60;;;;;;5028953;28;87668;-40
2023/05/09 10:27:47;;;;;;;;;;;15.60;63.70;;;;;;5025853;28;88440;-41
2023/05/09 10:30:26;;;;;;;;;;;15.70;63.70;;;;;;5031522;28;87389;-40
2023/05/09 10:32:53;;;;;;;;;;;15.70;63.70;;;;;;5029092;27;87612;-41
2023/05/09 10:35:21;;;;;;;;;;;15.70;63.60;;;;;;5033655;28;87069;-41
2023/05/09 10:37:47;;;;;;;;;;;15.70;63.60;;;;;;5033799;28;87485;-41
2023/05/09 10:40:14;;;;;;;;;;;15.70;63.50;;;;;;5031127;28;88175;-41
2023/05/09 10:42:42;;;;;;;;;;;15.70;63.50;;;;;;5033330;28;87190;-41
2023/05/09 10:45:09;;;;;;;;;;;15.70;63.50;;;;;;5033858;28;87958;-41
2023/05/09 10:47:35;;;;;;;;;;;15.70;63.50;;;;;;5032098;28;88560;-40
2023/05/09 10:50:01;;;;;;;;;;;15.80;63.50;;;;;;5034555;28;87239;-41
2023/05/09 10:52:30;;;;;;;;;;;15.70;63.40;;;;;;5033835;28;88172;-40
2023/05/09 10:55:03;;;;;;;;;;;15.80;63.50;;;;;;5034188;28;87404;-41
2023/05/09 10:57:29;;;;;;;;;;;15.80;63.50;;;;;;5029619;28;88900;-40
2023/05/09 10:59:55;;;;;;;;;;;15.80;63.50;;;;;;5030737;27;89675;-41
2023/05/09 11:02:22;;;;;;;;;;;15.80;63.50;;;;;;5034122;28;86812;-41
2023/05/09 11:05:08;;;;;;;;;;;15.80;63.50;;;;;;5032842;28;87958;-41
2023/05/09 11:07:33;;;;;;;;;;;15.80;63.50;;;;;;5032080;28;88143;-41
2023/05/09 11:10:09;;;;;;;;;;;15.80;63.40;;;;;;5031024;28;88502;-41
2023/05/09 11:12:51;;;;;;;;;;;15.80;63.60;;;;;;5033367;27;88147;-41
2023/05/09 11:15:17;;;;;;;;;;;15.80;63.30;;;;;;5032484;28;87040;-40
2023/05/09 11:17:42;;;;;;;;;;;15.80;63.30;;;;;;5033412;28;87261;-41
2023/05/09 11:20:08;;;;;;;;;;;15.90;63.40;;;;;;5032977;28;88690;-41
2023/05/09 11:22:38;;;;;;;;;;;15.80;63.80;;;;;;5032084;28;87692;-41
2023/05/09 11:25:04;;;;;;;;;;;15.80;63.40;;;;;;5032034;27;87925;-41
2023/05/09 11:27:42;;;;;;;;;;;15.80;63.40;;;;;;5032724;28;88940;-41
2023/05/09 11:30:08;;;;;;;;;;;15.80;63.30;;;;;;5033632;28;87531;-42
2023/05/09 11:32:40;;;;;;;;;;;15.80;63.10;;;;;;5031777;28;87594;-40
2023/05/09 11:35:06;;;;;;;;;;;15.80;63.20;;;;;;5032891;28;89014;-40
2023/05/09 11:37:31;;;;;;;;;;;15.90;63.20;;;;;;5031853;28;89853;-40
2023/05/09 11:39:58;;;;;;;;;;;15.90;63.10;;;;;;5033986;28;87965;-41
2023/05/09 11:42:27;;;;;;;;;;;15.90;63.20;;;;;;5027245;28;87882;-40
2023/05/09 11:44:53;;;;;;;;;;;15.90;63.20;;;;;;5029919;28;87475;-41
2023/05/09 11:47:19;;;;;;;;;;;15.90;62.90;;;;;;5032806;28;89314;-41
2023/05/09 11:49:45;;;;;;;;;;;15.90;62.90;;;;;;5032806;28;87588;-41
2023/05/09 11:52:10;;;;;;;;;;;15.80;62.80;;;;;;5031374;28;88885;-41
2023/05/09 11:54:39;;;;;;;;;;;15.90;62.90;;;;;;5032295;28;87265;-41
2023/05/09 11:57:05;;;;;;;;;;;15.90;62.90;;;;;;5036507;28;87196;-40
2023/05/09 11:59:32;;;;;;;;;;;15.90;63.00;;;;;;5029977;28;90746;-40
2023/05/09 12:02:02;;;;;;;;;;;15.90;62.80;;;;;;5032034;28;87564;-41
2023/05/09 12:04:29;;;;;;;;;;;15.90;62.90;;;;;;5031142;28;89232;-41
2023/05/09 12:06:56;;;;;;;;;;;15.90;62.80;;;;;;5031651;28;87251;-41
2023/05/09 12:09:23;;;;;;;;;;;15.90;62.80;;;;;;5033807;28;87483;-41
2023/05/09 12:11:49;;;;;;;;;;;15.90;62.90;;;;;;5031529;28;88825;-40
2023/05/09 12:14:27;;;;;;;;;;;16.00;62.90;;;;;;5031332;28;87966;-40
2023/05/09 12:16:53;;;;;;;;;;;16.00;62.80;;;;;;5031434;28;86368;-40
2023/05/09 12:19:19;;;;;;;;;;;16.00;62.90;;;;;;5034985;28;87035;-40
2023/05/09 12:21:45;;;;;;;;;;;16.00;62.80;;;;;;5031469;28;87121;-41
2023/05/09 12:24:10;;;;;;;;;;;16.00;62.80;;;;;;5029942;27;88043;-41
2023/05/09 12:26:36;;;;;;;;;;;16.00;62.80;;;;;;5031555;28;88058;-41
2023/05/09 12:29:01;;;;;;;;;;;16.00;62.80;;;;;;5033298;28;87229;-40
2023/05/09 12:31:27;;;;;;;;;;;16.00;62.80;;;;;;5030110;28;87281;-41
2023/05/09 12:33:53;;;;;;;;;;;16.00;62.90;;;;;;5031643;28;88008;-41
2023/05/09 12:36:18;;;;;;;;;;;16.10;62.80;;;;;;5032586;28;87715;-41
2023/05/09 12:38:53;;;;;;;;;;;16.10;62.90;;;;;;5030462;28;87076;-41
2023/05/09 12:41:20;;;;;;;;;;;16.10;62.90;;;;;;5032481;28;89198;-41
2023/05/09 12:43:50;;;;;;;;;;;16.10;62.90;;;;;;5030786;28;86977;-41
2023/05/09 12:46:19;;;;;;;;;;;16.10;62.90;;;;;;5032374;28;89190;-41
2023/05/09 12:48:46;;;;;;;;;;;16.10;62.80;;;;;;5031244;28;88136;-41
2023/05/09 12:51:16;;;;;;;;;;;16.10;62.80;;;;;;5029634;28;90140;-40
2023/05/09 12:53:42;;;;;;;;;;;16.10;62.70;;;;;;5029650;28;88108;-41
2023/05/09 12:56:14;;;;;;;;;;;16.10;62.80;;;;;;5028722;27;87135;-40
2023/05/09 12:58:46;;;;;;;;;;;16.20;62.80;;;;;;5031231;27;87415;-40
2023/05/09 13:01:12;;;;;;;;;;;16.10;62.70;;;;;;5029762;28;88070;-41
2023/05/09 13:03:38;;;;;;;;;;;16.20;62.80;;;;;;5029403;27;88779;-40
2023/05/09 13:06:04;;;;;;;;;;;16.20;62.80;;;;;;5032062;28;88211;-41
2023/05/09 13:08:30;;;;;;;;;;;16.10;62.60;;;;;;5031259;28;87602;-40
2023/05/09 13:10:56;;;;;;;;;;;16.20;62.70;;;;;;5030106;27;87405;-41
2023/05/09 13:13:25;;;;;;;;;;;16.20;62.90;;;;;;5030971;28;88712;-41
2023/05/09 13:15:50;;;;;;;;;;;16.20;62.60;;;;;;5031912;28;87121;-42
2023/05/09 13:18:16;;;;;;;;;;;16.20;62.60;;;;;;5030099;28;87369;-41
2023/05/09 13:20:42;;;;;;;;;;;16.20;62.70;;;;;;5030507;28;88161;-41
2023/05/09 13:23:07;;;;;;;;;;;16.20;62.70;;;;;;5033741;28;87201;-41
2023/05/09 13:25:33;;;;;;;;;;;16.30;62.80;;;;;;5029741;28;88129;-41
2023/05/09 13:27:58;;;;;;;;;;;16.20;62.60;;;;;;5030026;28;87559;-41
2023/05/09 13:30:24;;;;;;;;;;;16.20;62.70;;;;;;5032923;28;88850;-41
2023/05/09 13:32:50;;;;;;;;;;;16.20;62.70;;;;;;5031031;28;87996;-41
2023/05/09 13:35:16;;;;;;;;;;;16.20;62.60;;;;;;5029882;28;87088;-41
2023/05/09 13:37:42;;;;;;;;;;;16.20;62.70;;;;;;5033565;28;88115;-41
2023/05/09 13:40:08;;;;;;;;;;;16.30;62.70;;;;;;5029180;28;89348;-41
2023/05/09 13:42:34;;;;;;;;;;;16.30;62.70;;;;;;5025623;28;87538;-41
2023/05/09 13:45:00;;;;;;;;;;;16.20;62.80;;;;;;5032849;27;88995;-41
2023/05/09 13:47:26;;;;;;;;;;;16.20;62.70;;;;;;5032304;28;87040;-41
2023/05/09 13:49:51;;;;;;;;;;;16.20;62.80;;;;;;5031207;28;87392;-41
2023/05/09 13:52:17;;;;;;;;;;;16.20;62.70;;;;;;5029808;28;88171;-41
2023/05/09 13:54:42;;;;;;;;;;;16.20;62.70;;;;;;5027368;28;86381;-41
2023/05/09 13:57:08;;;;;;;;;;;16.20;62.70;;;;;;5030821;27;87145;-41
2023/05/09 13:59:33;;;;;;;;;;;16.20;62.70;;;;;;5031790;28;87628;-40
2023/05/09 14:01:59;;;;;;;;;;;16.20;63.40;;;;;;5029947;28;88048;-40
2023/05/09 14:04:28;;;;;;;;;;;16.20;62.70;;;;;;5029497;28;87498;-41
2023/05/09 14:06:54;;;;;;;;;;;16.20;62.60;;;;;;5029112;28;88371;-40
2023/05/09 14:09:21;;;;;;;;;;;16.20;62.60;;;;;;5033249;27;87662;-41
2023/05/09 14:11:50;;;;;;;;;;;16.20;63.00;;;;;;5035574;28;88045;-41